Time;durP1;ratioP1;P1;durP2;ratioP2;P2;SDS_P1;SDS_P2;PMS_P1;PMS_P2;Temp;Humidity;BMP_temperature;BMP_pressure;BME280_temperature;BME280_humidity;BME280_pressure;Samples;Min_cycle;Max_cycle;Signal;HPM_P1;HPM_P2
2022/01/05 00:01:03;;;;;;;;;;;3.40;99.90;;;;;;5037079;28;19967;-72
2022/01/05 00:03:35;;;;;;;;;;;3.40;99.90;;;;;;5036077;28;19920;-73
2022/01/05 00:06:06;;;;;;;;;;;3.40;99.90;;;;;;5020797;28;19930;-72
2022/01/05 00:08:33;;;;;;;;;;;3.30;99.90;;;;;;5036254;28;19975;-73
2022/01/05 00:11:06;;;;;;;;;;;3.20;99.90;;;;;;5053774;28;20007;-74
2022/01/05 00:13:38;;;;;;;;;;;3.20;99.90;;;;;;5022582;28;20365;-72
2022/01/05 00:16:10;;;;;;;;;;;3.10;99.90;;;;;;5035968;28;20007;-72
2022/01/05 00:18:37;;;;;;;;;;;3.10;99.90;;;;;;5035893;28;19921;-72
2022/01/05 00:21:08;;;;;;;;;;;3.10;99.90;;;;;;5053727;28;20361;-72
2022/01/05 00:23:40;;;;;;;;;;;3.10;99.90;;;;;;5050790;28;19921;-72
2022/01/05 00:26:06;;;;;;;;;;;3.10;99.90;;;;;;5035785;28;19959;-73
2022/01/05 00:28:38;;;;;;;;;;;3.10;99.90;;;;;;5033475;28;19927;-72
2022/01/05 00:31:10;;;;;;;;;;;3.00;99.90;;;;;;5019745;28;20027;-73
2022/01/05 00:33:42;;;;;;;;;;;3.00;99.90;;;;;;5053122;28;20320;-71
2022/01/05 00:36:09;;;;;;;;;;;3.00;99.90;;;;;;5034370;28;20441;-72
2022/01/05 00:38:35;;;;;;;;;;;3.00;99.90;;;;;;5035660;28;19952;-71
2022/01/05 00:41:02;;;;;;;;;;;3.00;99.90;;;;;;5053448;28;20019;-71
2022/01/05 00:43:34;;;;;;;;;;;3.00;99.90;;;;;;5036426;28;20011;-72
2022/01/05 00:46:06;;;;;;;;;;;3.10;99.90;;;;;;5053071;28;20003;-71
2022/01/05 00:48:38;;;;;;;;;;;3.00;99.90;;;;;;5053201;28;20015;-72
2022/01/05 00:51:10;;;;;;;;;;;3.00;99.90;;;;;;5053343;28;19921;-72
2022/01/05 00:53:37;;;;;;;;;;;3.00;99.90;;;;;;5035351;28;20354;-72
2022/01/05 00:56:04;;;;;;;;;;;2.90;99.90;;;;;;5035339;28;20011;-73
2022/01/05 00:58:31;;;;;;;;;;;2.90;99.90;;;;;;5035317;28;20052;-73
2022/01/05 01:01:02;;;;;;;;;;;2.90;99.90;;;;;;5036092;28;20011;-73
2022/01/05 01:03:34;;;;;;;;;;;3.00;99.90;;;;;;5052475;28;20423;-73
2022/01/05 01:06:02;;;;;;;;;;;3.00;99.90;;;;;;5034928;28;19971;-73
2022/01/05 01:08:28;;;;;;;;;;;3.10;99.90;;;;;;5034902;28;20016;-73
2022/01/05 01:11:00;;;;;;;;;;;3.10;99.90;;;;;;5034928;28;20015;-73
2022/01/05 01:13:32;;;;;;;;;;;3.10;99.90;;;;;;5026222;28;19974;-73
2022/01/05 01:15:58;;;;;;;;;;;3.10;99.90;;;;;;5035170;28;20525;-73
2022/01/05 01:18:30;;;;;;;;;;;3.10;99.90;;;;;;5035371;28;20148;-72
2022/01/05 01:21:02;;;;;;;;;;;3.10;99.90;;;;;;5018725;28;19956;-73
2022/01/05 01:23:36;;;;;;;;;;;3.10;99.90;;;;;;5052368;28;20262;-73
2022/01/05 01:26:08;;;;;;;;;;;3.10;99.90;;;;;;5034501;28;20007;-73
2022/01/05 01:28:34;;;;;;;;;;;3.20;99.90;;;;;;5034749;28;19955;-73
2022/01/05 01:31:06;;;;;;;;;;;3.10;99.90;;;;;;5034551;28;20001;-73
2022/01/05 01:33:33;;;;;;;;;;;3.10;99.90;;;;;;5024926;28;20086;-72
2022/01/05 01:35:59;;;;;;;;;;;3.10;99.90;;;;;;5031335;28;20416;-73
2022/01/05 01:38:26;;;;;;;;;;;3.10;99.90;;;;;;5032417;28;20020;-72
2022/01/05 01:40:58;;;;;;;;;;;3.10;99.90;;;;;;5015404;28;19920;-72
2022/01/05 01:43:30;;;;;;;;;;;3.10;99.90;;;;;;5030695;28;20365;-73
2022/01/05 01:46:02;;;;;;;;;;;3.10;99.90;;;;;;5032249;28;20312;-72
2022/01/05 01:48:34;;;;;;;;;;;3.10;99.90;;;;;;5032425;28;19952;-73
2022/01/05 01:51:05;;;;;;;;;;;3.10;99.90;;;;;;5031067;28;19948;-73
2022/01/05 01:53:37;;;;;;;;;;;3.10;99.90;;;;;;5034694;28;20024;-73
2022/01/05 01:56:05;;;;;;;;;;;3.10;99.90;;;;;;5034132;28;19979;-73
2022/01/05 01:58:36;;;;;;;;;;;3.20;99.90;;;;;;5034232;28;20015;-73
2022/01/05 02:01:08;;;;;;;;;;;3.20;99.90;;;;;;5017832;28;20007;-73
2022/01/05 02:03:35;;;;;;;;;;;3.20;99.90;;;;;;5050882;28;20015;-73
2022/01/05 02:06:01;;;;;;;;;;;3.20;99.90;;;;;;5033499;28;20345;-73
2022/01/05 02:08:34;;;;;;;;;;;3.20;99.90;;;;;;5014506;28;20316;-72
2022/01/05 02:11:02;;;;;;;;;;;3.30;99.90;;;;;;5030057;28;19929;-73
2022/01/05 02:13:29;;;;;;;;;;;3.30;99.90;;;;;;5013054;28;20381;-72
2022/01/05 02:16:01;;;;;;;;;;;3.30;99.90;;;;;;5018847;28;20120;-73
2022/01/05 02:21:07;;;;;;;;;;;3.40;99.90;;;;;;5051543;28;20445;-73
2022/01/05 02:23:34;;;;;;;;;;;3.40;99.90;;;;;;5017058;28;20353;-72
2022/01/05 02:26:06;;;;;;;;;;;3.40;99.90;;;;;;5033611;28;20011;-73
2022/01/05 02:28:39;;;;;;;;;;;3.40;99.90;;;;;;5050948;28;20007;-72
2022/01/05 02:31:11;;;;;;;;;;;3.50;99.90;;;;;;5033028;28;19952;-72
2022/01/05 02:33:38;;;;;;;;;;;3.40;99.90;;;;;;5050432;28;19978;-73
2022/01/05 02:36:13;;;;;;;;;;;3.40;99.90;;;;;;5033082;28;19975;-73
2022/01/05 02:38:40;;;;;;;;;;;3.40;99.90;;;;;;5033217;28;19960;-72
2022/01/05 02:41:08;;;;;;;;;;;3.40;99.90;;;;;;5033507;28;20023;-72
2022/01/05 02:43:35;;;;;;;;;;;3.30;99.90;;;;;;5050867;28;19952;-74
2022/01/05 02:46:11;;;;;;;;;;;3.20;99.90;;;;;;5033236;28;20359;-73
2022/01/05 02:48:43;;;;;;;;;;;3.10;99.90;;;;;;5051043;28;19927;-73
2022/01/05 02:51:15;;;;;;;;;;;3.10;99.90;;;;;;5033449;28;19927;-73
2022/01/05 02:53:42;;;;;;;;;;;3.00;99.90;;;;;;5016597;28;19978;-73
2022/01/05 02:56:08;;;;;;;;;;;3.00;99.90;;;;;;5051281;28;20360;-72
2022/01/05 02:58:40;;;;;;;;;;;3.00;99.90;;;;;;5033357;28;20011;-73
2022/01/05 03:01:12;;;;;;;;;;;2.90;99.90;;;;;;5033162;28;19925;-72
2022/01/05 03:03:44;;;;;;;;;;;2.90;99.90;;;;;;5050710;28;20385;-74
2022/01/05 03:06:15;;;;;;;;;;;2.90;99.90;;;;;;5033407;28;19920;-73
2022/01/05 03:08:47;;;;;;;;;;;2.90;99.90;;;;;;5033392;28;20035;-73
2022/01/05 03:11:19;;;;;;;;;;;2.90;99.90;;;;;;5037823;28;19987;-73
2022/01/05 03:13:50;;;;;;;;;;;2.80;99.90;;;;;;5054594;28;20266;-72
2022/01/05 03:16:38;;;;;;;;;;;2.80;99.90;;;;;;5037856;28;20582;-73
2022/01/05 03:19:09;;;;;;;;;;;2.80;99.90;;;;;;5037173;28;19921;-72
2022/01/05 03:21:36;;;;;;;;;;;2.80;99.90;;;;;;5020668;28;19963;-73
2022/01/05 03:24:03;;;;;;;;;;;2.80;99.90;;;;;;5054633;28;19960;-73
2022/01/05 03:26:29;;;;;;;;;;;2.80;99.90;;;;;;5036885;28;19955;-73
2022/01/05 03:29:01;;;;;;;;;;;2.80;99.90;;;;;;5036937;28;20005;-72
2022/01/05 03:31:33;;;;;;;;;;;2.70;99.90;;;;;;5036898;28;20375;-72
2022/01/05 03:33:59;;;;;;;;;;;2.70;99.90;;;;;;5054321;28;20007;-72
2022/01/05 03:36:31;;;;;;;;;;;2.70;99.90;;;;;;5037706;28;20023;-73
2022/01/05 03:39:03;;;;;;;;;;;2.70;99.90;;;;;;5036641;28;20011;-73
2022/01/05 03:41:34;;;;;;;;;;;2.70;99.90;;;;;;5054513;28;19920;-73
2022/01/05 03:44:01;;;;;;;;;;;2.70;99.90;;;;;;5036144;28;19967;-73
2022/01/05 03:46:33;;;;;;;;;;;2.70;99.90;;;;;;5037291;28;20004;-72
2022/01/05 03:49:01;;;;;;;;;;;2.70;99.90;;;;;;5036845;28;20337;-73
2022/01/05 03:51:33;;;;;;;;;;;2.70;99.90;;;;;;5036642;28;19964;-73
2022/01/05 03:54:04;;;;;;;;;;;2.70;99.90;;;;;;5053870;28;20381;-73
2022/01/05 03:56:31;;;;;;;;;;;2.70;99.90;;;;;;5036367;28;19974;-72
2022/01/05 03:59:03;;;;;;;;;;;2.70;99.90;;;;;;5036305;28;20027;-72
2022/01/05 04:01:34;;;;;;;;;;;2.60;99.90;;;;;;5036370;28;20365;-73
2022/01/05 04:04:01;;;;;;;;;;;2.60;99.90;;;;;;5019301;28;19921;-73
2022/01/05 04:06:32;;;;;;;;;;;2.60;99.90;;;;;;5037214;28;19924;-72
2022/01/05 04:09:04;;;;;;;;;;;2.60;99.90;;;;;;5035977;28;19920;-73
2022/01/05 04:11:31;;;;;;;;;;;2.60;99.90;;;;;;5036060;28;19944;-73
2022/01/05 04:14:04;;;;;;;;;;;2.60;99.90;;;;;;5035760;28;20023;-73
2022/01/05 04:16:31;;;;;;;;;;;2.60;99.90;;;;;;5036197;28;20033;-72
2022/01/05 04:19:02;;;;;;;;;;;2.70;99.90;;;;;;5053831;28;20031;-73
2022/01/05 04:21:34;;;;;;;;;;;2.70;99.90;;;;;;5035411;28;20012;-72
2022/01/05 04:24:06;;;;;;;;;;;2.70;99.90;;;;;;5053296;28;19921;-73
2022/01/05 04:26:37;;;;;;;;;;;2.70;99.90;;;;;;5036042;28;19921;-73
2022/01/05 04:29:10;;;;;;;;;;;2.70;99.90;;;;;;5053773;28;20007;-72
2022/01/05 04:31:42;;;;;;;;;;;2.70;99.90;;;;;;5035875;28;20016;-73
2022/01/05 04:34:14;;;;;;;;;;;2.70;99.90;;;;;;5016376;28;19956;-72
2022/01/05 04:36:41;;;;;;;;;;;2.70;99.90;;;;;;5016194;28;19971;-73
2022/01/05 04:39:12;;;;;;;;;;;2.70;99.90;;;;;;5015841;28;19932;-73
2022/01/05 04:41:44;;;;;;;;;;;2.70;99.90;;;;;;5043753;28;20013;-73
2022/01/05 04:44:16;;;;;;;;;;;2.70;99.90;;;;;;5034892;28;19927;-72
2022/01/05 04:46:47;;;;;;;;;;;2.70;99.90;;;;;;5053399;28;20007;-72
2022/01/05 04:49:19;;;;;;;;;;;2.70;99.90;;;;;;5035123;28;20015;-72
2022/01/05 04:51:51;;;;;;;;;;;2.70;99.90;;;;;;5019141;28;19920;-73
2022/01/05 04:54:18;;;;;;;;;;;2.70;99.90;;;;;;5034335;28;19920;-72
2022/01/05 04:56:44;;;;;;;;;;;2.70;99.90;;;;;;5018063;28;20367;-72
2022/01/05 04:59:11;;;;;;;;;;;2.70;99.90;;;;;;5034994;28;19956;-73
2022/01/05 05:01:38;;;;;;;;;;;2.70;99.90;;;;;;5052323;28;20020;-73
2022/01/05 05:04:09;;;;;;;;;;;2.60;99.90;;;;;;5035143;28;20022;-73
2022/01/05 05:06:41;;;;;;;;;;;2.60;99.90;;;;;;5018949;28;19920;-73
2022/01/05 05:09:13;;;;;;;;;;;2.60;99.90;;;;;;5034261;28;19967;-72
2022/01/05 05:11:39;;;;;;;;;;;2.50;99.90;;;;;;5052291;28;19921;-73
2022/01/05 05:14:06;;;;;;;;;;;2.50;99.90;;;;;;5017531;28;20012;-73
2022/01/05 05:16:33;;;;;;;;;;;2.50;99.90;;;;;;5052158;28;20011;-73
2022/01/05 05:19:04;;;;;;;;;;;2.40;99.90;;;;;;5034118;28;19971;-73
2022/01/05 05:21:31;;;;;;;;;;;2.40;99.90;;;;;;5033789;28;20015;-73
2022/01/05 05:23:58;;;;;;;;;;;2.40;99.90;;;;;;5033412;28;20011;-73
2022/01/05 05:26:24;;;;;;;;;;;2.30;99.90;;;;;;5034089;28;20142;-72
2022/01/05 05:28:51;;;;;;;;;;;2.30;99.90;;;;;;5034309;28;19960;-74
2022/01/05 05:31:18;;;;;;;;;;;2.30;99.90;;;;;;5017683;28;20015;-73
2022/01/05 05:33:49;;;;;;;;;;;2.30;99.90;;;;;;5032390;28;20003;-72
2022/01/05 05:36:21;;;;;;;;;;;2.30;99.90;;;;;;5051423;28;20432;-71
2022/01/05 05:38:48;;;;;;;;;;;2.30;99.90;;;;;;5029169;28;19925;-73
2022/01/05 05:41:15;;;;;;;;;;;2.30;99.90;;;;;;5047053;28;20288;-72
2022/01/05 05:43:42;;;;;;;;;;;2.40;99.90;;;;;;5033243;28;20011;-72
2022/01/05 05:46:13;;;;;;;;;;;2.40;99.90;;;;;;5053022;28;20063;-72
2022/01/05 05:48:45;;;;;;;;;;;2.50;99.90;;;;;;5061171;28;20011;-72
2022/01/05 05:51:12;;;;;;;;;;;2.50;99.90;;;;;;5029418;28;20372;-71
2022/01/05 05:53:43;;;;;;;;;;;2.50;99.90;;;;;;5026968;28;20464;-72
2022/01/05 05:56:15;;;;;;;;;;;2.60;99.90;;;;;;5050453;28;19921;-72
2022/01/05 05:58:47;;;;;;;;;;;2.60;99.90;;;;;;5032780;28;20023;-72
2022/01/05 06:01:18;;;;;;;;;;;2.60;99.90;;;;;;5049640;28;20383;-72
2022/01/05 06:03:45;;;;;;;;;;;2.70;99.90;;;;;;5038015;28;20028;-72
2022/01/05 06:06:17;;;;;;;;;;;2.70;99.90;;;;;;5050519;28;20058;-72
2022/01/05 06:08:44;;;;;;;;;;;2.70;99.90;;;;;;5034256;28;19986;-72
2022/01/05 06:11:15;;;;;;;;;;;2.70;99.90;;;;;;5032703;28;20397;-72
2022/01/05 06:13:42;;;;;;;;;;;2.70;99.90;;;;;;5017563;28;19974;-72
2022/01/05 06:16:14;;;;;;;;;;;2.70;99.90;;;;;;5034604;28;20422;-72
2022/01/05 06:18:45;;;;;;;;;;;2.80;99.90;;;;;;5034376;28;20011;-72
2022/01/05 06:21:17;;;;;;;;;;;2.80;99.90;;;;;;5034628;28;19960;-71
2022/01/05 06:23:48;;;;;;;;;;;2.80;99.90;;;;;;5051505;28;20011;-72
2022/01/05 06:26:15;;;;;;;;;;;2.80;99.90;;;;;;5021867;28;19964;-72
2022/01/05 06:28:42;;;;;;;;;;;2.80;99.90;;;;;;5034144;28;19951;-71
2022/01/05 06:31:13;;;;;;;;;;;2.80;99.90;;;;;;5035339;28;20015;-72
2022/01/05 06:33:40;;;;;;;;;;;2.80;99.90;;;;;;5017633;28;20083;-71
2022/01/05 06:36:12;;;;;;;;;;;2.80;99.90;;;;;;5051864;28;20019;-72
2022/01/05 06:38:43;;;;;;;;;;;2.80;99.90;;;;;;5033804;28;20015;-72
2022/01/05 06:41:10;;;;;;;;;;;2.80;99.90;;;;;;5034263;28;19986;-72
2022/01/05 06:43:37;;;;;;;;;;;2.80;99.90;;;;;;5035227;28;20023;-72
2022/01/05 06:46:08;;;;;;;;;;;2.80;99.90;;;;;;5034470;28;20011;-71
2022/01/05 06:48:35;;;;;;;;;;;2.80;99.90;;;;;;5034264;28;19973;-71
2022/01/05 06:51:07;;;;;;;;;;;2.80;99.90;;;;;;5035025;28;19921;-72
2022/01/05 06:53:33;;;;;;;;;;;2.80;99.90;;;;;;5034974;28;20458;-71
2022/01/05 06:56:00;;;;;;;;;;;2.80;99.90;;;;;;5030589;28;19928;-72
2022/01/05 06:58:32;;;;;;;;;;;2.80;99.90;;;;;;5047872;28;19921;-72
2022/01/05 07:01:04;;;;;;;;;;;2.80;99.90;;;;;;5025905;28;19984;-71
2022/01/05 07:03:35;;;;;;;;;;;2.80;99.90;;;;;;5012907;28;19921;-72
2022/01/05 07:06:07;;;;;;;;;;;2.80;99.90;;;;;;5032829;28;20618;-72
2022/01/05 07:08:39;;;;;;;;;;;2.80;99.90;;;;;;5057293;28;19968;-72
2022/01/05 07:11:11;;;;;;;;;;;2.70;99.90;;;;;;5034737;28;20405;-72
2022/01/05 07:13:43;;;;;;;;;;;2.80;99.90;;;;;;5026202;28;20013;-72
2022/01/05 07:16:14;;;;;;;;;;;2.80;99.90;;;;;;5034120;28;20444;-72
2022/01/05 07:18:41;;;;;;;;;;;2.80;99.90;;;;;;5053375;28;19963;-72
2022/01/05 07:21:13;;;;;;;;;;;2.70;99.90;;;;;;5029292;28;19921;-72
2022/01/05 07:23:45;;;;;;;;;;;2.80;99.90;;;;;;5042111;28;19960;-72
2022/01/05 07:26:16;;;;;;;;;;;2.80;99.90;;;;;;5017165;28;20021;-72
2022/01/05 07:28:48;;;;;;;;;;;2.80;99.90;;;;;;5054742;28;20011;-72
2022/01/05 07:31:20;;;;;;;;;;;2.80;99.90;;;;;;5024920;28;19988;-72
2022/01/05 07:33:51;;;;;;;;;;;2.80;99.90;;;;;;5036411;28;20031;-72
2022/01/05 07:36:23;;;;;;;;;;;2.80;99.90;;;;;;5052611;28;19920;-73
2022/01/05 07:38:54;;;;;;;;;;;2.90;99.90;;;;;;5043226;28;20023;-72
2022/01/05 07:41:27;;;;;;;;;;;2.90;99.90;;;;;;5022406;28;20019;-72
2022/01/05 07:43:54;;;;;;;;;;;3.00;99.90;;;;;;5042276;28;19920;-72
2022/01/05 07:46:21;;;;;;;;;;;2.90;99.90;;;;;;5032034;28;19971;-72
2022/01/05 07:48:53;;;;;;;;;;;2.90;99.90;;;;;;5033778;28;20007;-71
2022/01/05 07:51:25;;;;;;;;;;;2.90;99.90;;;;;;5044829;28;19927;-72
2022/01/05 07:53:57;;;;;;;;;;;3.00;99.90;;;;;;5028706;28;20766;-72
2022/01/05 07:56:29;;;;;;;;;;;3.00;99.90;;;;;;5026718;28;19920;-72
2022/01/05 07:58:56;;;;;;;;;;;3.00;99.90;;;;;;5032708;28;19960;-71
2022/01/05 08:01:23;;;;;;;;;;;2.90;99.90;;;;;;5035468;28;20015;-72
2022/01/05 08:03:55;;;;;;;;;;;2.80;99.90;;;;;;5033476;28;19924;-73
2022/01/05 08:06:22;;;;;;;;;;;2.80;99.90;;;;;;5036076;28;19964;-72
2022/01/05 08:08:49;;;;;;;;;;;2.70;99.90;;;;;;5052525;28;19955;-72
2022/01/05 08:11:17;;;;;;;;;;;2.60;99.90;;;;;;5036395;28;20015;-71
2022/01/05 08:13:44;;;;;;;;;;;2.60;99.90;;;;;;5035571;28;19925;-72
2022/01/05 08:16:16;;;;;;;;;;;2.50;99.90;;;;;;5037494;28;19920;-72
2022/01/05 08:18:49;;;;;;;;;;;2.50;99.90;;;;;;5053493;28;19920;-72
2022/01/05 08:21:17;;;;;;;;;;;2.40;99.90;;;;;;5036223;28;19928;-71
2022/01/05 08:23:44;;;;;;;;;;;2.30;99.90;;;;;;5035705;28;19925;-72
2022/01/05 08:26:11;;;;;;;;;;;2.30;99.90;;;;;;5053764;28;19990;-72
2022/01/05 08:28:43;;;;;;;;;;;2.30;99.90;;;;;;5036142;28;20351;-72
2022/01/05 08:31:15;;;;;;;;;;;2.20;99.90;;;;;;5035942;28;19921;-71
2022/01/05 08:33:47;;;;;;;;;;;2.20;99.90;;;;;;5035073;28;19920;-72
2022/01/05 08:36:19;;;;;;;;;;;2.20;99.90;;;;;;5053183;28;20297;-72
2022/01/05 08:38:51;;;;;;;;;;;2.20;99.90;;;;;;5021278;28;19935;-72
2022/01/05 08:41:22;;;;;;;;;;;2.10;99.90;;;;;;5053154;28;20031;-71
2022/01/05 08:43:50;;;;;;;;;;;2.10;99.90;;;;;;5052990;28;20361;-71
2022/01/05 08:46:22;;;;;;;;;;;2.00;99.90;;;;;;5069645;28;20297;-71
2022/01/05 08:48:54;;;;;;;;;;;2.10;99.90;;;;;;5053296;28;20485;-72
2022/01/05 08:51:21;;;;;;;;;;;2.10;99.90;;;;;;5053243;28;20440;-72
2022/01/05 08:53:48;;;;;;;;;;;2.00;99.90;;;;;;5038378;28;19921;-72
2022/01/05 08:56:23;;;;;;;;;;;2.10;99.90;;;;;;5036105;28;19943;-72
2022/01/05 08:58:50;;;;;;;;;;;2.00;99.90;;;;;;5052174;28;20293;-72
2022/01/05 09:01:22;;;;;;;;;;;2.00;99.90;;;;;;5034030;28;19955;-72
2022/01/05 09:03:52;;;;;;;;;;;2.00;99.90;;;;;;5034351;28;20346;-72
2022/01/05 09:06:19;;;;;;;;;;;2.00;99.90;;;;;;5014539;28;19921;-72
2022/01/05 09:08:46;;;;;;;;;;;2.00;99.90;;;;;;5031370;28;19966;-72
2022/01/05 09:11:13;;;;;;;;;;;2.00;99.90;;;;;;5052436;28;19921;-72
2022/01/05 09:13:45;;;;;;;;;;;2.00;99.90;;;;;;5033072;28;20297;-72
2022/01/05 09:16:12;;;;;;;;;;;2.00;99.90;;;;;;5033838;28;20385;-71
2022/01/05 09:18:43;;;;;;;;;;;2.00;99.90;;;;;;5047273;28;20015;-71
2022/01/05 09:21:15;;;;;;;;;;;2.10;99.90;;;;;;5029438;28;19925;-72
2022/01/05 09:23:47;;;;;;;;;;;2.10;99.90;;;;;;5040256;28;20019;-72
2022/01/05 09:26:14;;;;;;;;;;;2.00;99.90;;;;;;5051553;28;19921;-72
2022/01/05 09:28:45;;;;;;;;;;;2.00;99.90;;;;;;5029339;28;20408;-72
2022/01/05 09:31:12;;;;;;;;;;;2.00;99.90;;;;;;5030430;28;19928;-72
2022/01/05 09:33:44;;;;;;;;;;;2.00;99.90;;;;;;5048707;28;19960;-72
2022/01/05 09:36:21;;;;;;;;;;;2.00;99.90;;;;;;5029942;28;19924;-72
2022/01/05 09:42:05;;;;;;;;;;;2.00;99.90;;;;;;5051462;28;19921;-72
2022/01/05 09:44:41;;;;;;;;;;;2.10;99.90;;;;;;5034079;28;20007;-71
2022/01/05 09:47:29;;;;;;;;;;;2.00;99.90;;;;;;5034040;28;19920;-72
2022/01/05 09:50:04;;;;;;;;;;;2.10;99.90;;;;;;5026720;28;19982;-73
2022/01/05 09:52:40;;;;;;;;;;;2.10;99.90;;;;;;5033292;28;20371;-74
2022/01/05 09:55:07;;;;;;;;;;;2.10;99.90;;;;;;5017907;28;19927;-72
2022/01/05 09:57:40;;;;;;;;;;;2.00;99.90;;;;;;5033709;28;19921;-73
2022/01/05 10:00:13;;;;;;;;;;;2.00;99.90;;;;;;5031984;28;19947;-71
2022/01/05 10:02:45;;;;;;;;;;;2.00;99.90;;;;;;5017469;28;20477;-72
2022/01/05 10:05:17;;;;;;;;;;;2.00;99.90;;;;;;5048459;28;20019;-72
2022/01/05 10:07:49;;;;;;;;;;;1.90;99.90;;;;;;5048965;28;19975;-71
2022/01/05 10:10:16;;;;;;;;;;;1.90;99.90;;;;;;5051262;28;19925;-72
2022/01/05 10:12:43;;;;;;;;;;;1.90;99.90;;;;;;5033219;28;20377;-72
2022/01/05 10:15:15;;;;;;;;;;;1.90;99.90;;;;;;5051363;28;19920;-71
2022/01/05 10:17:42;;;;;;;;;;;1.90;99.90;;;;;;5030411;28;19967;-71
2022/01/05 10:20:09;;;;;;;;;;;1.90;99.90;;;;;;5046709;28;19921;-72
2022/01/05 10:22:45;;;;;;;;;;;1.90;99.90;;;;;;5050427;28;20015;-72
2022/01/05 10:25:20;;;;;;;;;;;1.90;99.90;;;;;;5051047;28;19956;-72
2022/01/05 10:27:59;;;;;;;;;;;1.90;99.90;;;;;;5031508;28;19943;-72
2022/01/05 10:30:36;;;;;;;;;;;1.80;99.90;;;;;;5050974;28;20007;-72
2022/01/05 10:33:03;;;;;;;;;;;1.70;99.90;;;;;;5048617;28;19948;-72
2022/01/05 10:35:35;;;;;;;;;;;1.70;99.90;;;;;;5049283;28;19987;-72
2022/01/05 10:38:09;;;;;;;;;;;1.80;99.90;;;;;;5034541;28;19921;-72
2022/01/05 10:40:42;;;;;;;;;;;1.70;99.90;;;;;;5033795;28;19920;-72
2022/01/05 10:43:11;;;;;;;;;;;1.80;99.90;;;;;;5024686;28;19948;-71
2022/01/05 10:45:47;;;;;;;;;;;1.80;99.90;;;;;;5030633;28;20468;-72
2022/01/05 10:48:15;;;;;;;;;;;1.70;99.90;;;;;;5031537;28;19964;-72
2022/01/05 10:50:43;;;;;;;;;;;1.80;99.90;;;;;;5045399;28;19963;-72
2022/01/05 10:53:13;;;;;;;;;;;1.80;99.90;;;;;;5046991;28;19964;-72
2022/01/05 10:55:45;;;;;;;;;;;1.80;99.90;;;;;;5039120;28;19920;-72
2022/01/05 10:58:17;;;;;;;;;;;1.80;99.90;;;;;;5033620;28;20008;-72
2022/01/05 11:00:53;;;;;;;;;;;1.80;99.90;;;;;;5034395;28;19963;-72
2022/01/05 11:03:25;;;;;;;;;;;1.80;99.90;;;;;;5028497;28;19920;-72
2022/01/05 11:06:00;;;;;;;;;;;1.80;99.90;;;;;;5040783;28;19979;-72
2022/01/05 11:08:32;;;;;;;;;;;1.80;99.90;;;;;;5055890;28;19920;-72
2022/01/05 11:11:01;;;;;;;;;;;1.80;99.90;;;;;;5036018;28;19959;-72
2022/01/05 11:13:27;;;;;;;;;;;1.70;99.90;;;;;;5049846;28;19920;-72
2022/01/05 11:15:58;;;;;;;;;;;1.70;99.90;;;;;;5029124;28;19971;-72
2022/01/05 11:18:31;;;;;;;;;;;1.60;99.90;;;;;;5050507;28;19999;-72
2022/01/05 11:21:03;;;;;;;;;;;1.60;99.90;;;;;;5053520;28;19921;-72
2022/01/05 11:23:35;;;;;;;;;;;1.60;99.90;;;;;;5048309;28;20390;-72
2022/01/05 11:26:08;;;;;;;;;;;1.60;99.90;;;;;;5034187;28;19920;-72
2022/01/05 11:28:40;;;;;;;;;;;1.60;99.90;;;;;;5032490;28;20019;-73
2022/01/05 11:31:07;;;;;;;;;;;1.70;99.90;;;;;;5036213;28;20054;-72
2022/01/05 11:33:39;;;;;;;;;;;1.60;99.90;;;;;;5051276;28;20377;-72
2022/01/05 11:36:11;;;;;;;;;;;1.70;99.90;;;;;;5052941;28;19920;-72
2022/01/05 11:38:37;;;;;;;;;;;1.70;99.90;;;;;;5036374;28;19921;-72
2022/01/05 11:41:09;;;;;;;;;;;1.70;99.90;;;;;;5054799;28;19943;-71
2022/01/05 11:43:41;;;;;;;;;;;1.70;99.90;;;;;;5037976;28;19982;-72
2022/01/05 11:46:16;;;;;;;;;;;1.70;99.90;;;;;;5036145;28;19971;-72
2022/01/05 11:49:03;;;;;;;;;;;1.80;99.90;;;;;;5033644;28;20023;-72
2022/01/05 11:51:30;;;;;;;;;;;1.80;99.90;;;;;;5029457;28;19925;-72
2022/01/05 11:54:16;;;;;;;;;;;1.80;99.90;;;;;;5038938;28;19970;-72
2022/01/05 11:56:47;;;;;;;;;;;1.90;99.90;;;;;;5057896;28;20027;-71
2022/01/05 11:59:35;;;;;;;;;;;1.90;99.90;;;;;;5019300;28;20004;-72
2022/01/05 12:02:15;;;;;;;;;;;2.00;99.90;;;;;;5034145;28;20000;-72
2022/01/05 12:04:54;;;;;;;;;;;2.20;99.90;;;;;;5049636;28;20382;-72
2022/01/05 12:07:40;;;;;;;;;;;2.30;99.90;;;;;;5034033;28;20296;-72
2022/01/05 12:10:21;;;;;;;;;;;2.20;99.90;;;;;;5060877;28;20351;-72
2022/01/05 12:12:59;;;;;;;;;;;2.20;99.90;;;;;;5026834;28;19921;-72
2022/01/05 12:15:43;;;;;;;;;;;2.20;99.90;;;;;;5036456;28;19964;-72
2022/01/05 12:18:11;;;;;;;;;;;2.10;99.90;;;;;;5034115;28;19921;-72
2022/01/05 12:20:39;;;;;;;;;;;2.10;99.90;;;;;;5016949;28;19932;-73
2022/01/05 12:23:14;;;;;;;;;;;2.00;99.90;;;;;;5035399;28;19920;-71
2022/01/05 12:26:05;;;;;;;;;;;2.00;99.90;;;;;;5036211;28;19932;-72
2022/01/05 12:28:37;;;;;;;;;;;2.00;99.90;;;;;;5036017;28;20369;-71
2022/01/05 12:31:04;;;;;;;;;;;1.90;99.90;;;;;;5052340;28;19975;-71
2022/01/05 12:33:43;;;;;;;;;;;1.90;99.90;;;;;;5035825;28;20023;-71
2022/01/05 12:36:11;;;;;;;;;;;1.90;99.90;;;;;;5035742;28;20019;-70
2022/01/05 12:38:54;;;;;;;;;;;1.90;99.90;;;;;;5052643;28;19975;-71
2022/01/05 12:41:27;;;;;;;;;;;1.90;99.90;;;;;;5051412;28;19925;-71
2022/01/05 12:44:04;;;;;;;;;;;1.80;99.90;;;;;;5052613;28;19975;-71
2022/01/05 12:46:41;;;;;;;;;;;1.80;99.90;;;;;;5036363;28;19925;-71
2022/01/05 12:49:09;;;;;;;;;;;1.70;99.90;;;;;;5035492;28;19920;-71
2022/01/05 12:51:49;;;;;;;;;;;1.70;99.90;;;;;;5036276;28;20110;-70
2022/01/05 12:54:19;;;;;;;;;;;1.80;99.90;;;;;;5053012;28;20389;-71
2022/01/05 12:57:01;;;;;;;;;;;1.90;99.90;;;;;;5036344;28;19943;-71
2022/01/05 12:59:35;;;;;;;;;;;2.10;99.90;;;;;;5053361;28;20417;-71
2022/01/05 13:02:08;;;;;;;;;;;2.20;99.90;;;;;;5035913;28;20015;-71
2022/01/05 13:04:36;;;;;;;;;;;2.20;99.90;;;;;;5034877;28;20393;-71
2022/01/05 13:07:04;;;;;;;;;;;2.20;99.90;;;;;;5034976;28;20534;-71
2022/01/05 13:09:37;;;;;;;;;;;2.30;99.90;;;;;;5036052;28;20031;-71
2022/01/05 13:12:11;;;;;;;;;;;2.50;99.90;;;;;;5052790;28;20003;-71
2022/01/05 13:14:46;;;;;;;;;;;2.60;99.90;;;;;;5034440;28;19987;-70
2022/01/05 13:17:13;;;;;;;;;;;2.60;99.90;;;;;;5051454;28;20028;-71
2022/01/05 13:19:58;;;;;;;;;;;2.50;99.90;;;;;;5018900;28;19921;-71
2022/01/05 13:22:38;;;;;;;;;;;2.50;99.90;;;;;;5035314;28;19921;-71
2022/01/05 13:25:25;;;;;;;;;;;2.50;99.90;;;;;;5052491;28;19921;-71
2022/01/05 13:28:03;;;;;;;;;;;2.80;99.90;;;;;;5052511;28;20042;-71
2022/01/05 13:30:32;;;;;;;;;;;2.80;99.90;;;;;;5052886;28;19967;-71
2022/01/05 13:33:10;;;;;;;;;;;2.80;99.90;;;;;;5034380;28;20011;-72
2022/01/05 13:35:42;;;;;;;;;;;2.80;99.90;;;;;;5019071;28;19921;-71
2022/01/05 13:38:17;;;;;;;;;;;2.80;99.90;;;;;;5034414;28;19921;-71
2022/01/05 13:40:54;;;;;;;;;;;2.80;99.90;;;;;;5019102;28;20015;-71
2022/01/05 13:43:25;;;;;;;;;;;2.80;99.90;;;;;;5034012;28;20061;-71
2022/01/05 13:45:58;;;;;;;;;;;2.70;99.90;;;;;;5035214;28;20015;-71
2022/01/05 13:48:28;;;;;;;;;;;2.50;99.90;;;;;;5018532;28;19932;-72
2022/01/05 13:50:59;;;;;;;;;;;2.40;99.90;;;;;;5034423;28;19963;-72
2022/01/05 13:53:28;;;;;;;;;;;2.20;99.90;;;;;;5033581;28;20011;-70
2022/01/05 13:56:04;;;;;;;;;;;2.10;99.90;;;;;;5052054;28;20369;-71
2022/01/05 13:58:32;;;;;;;;;;;2.00;99.90;;;;;;5051734;28;19966;-71
2022/01/05 14:01:14;;;;;;;;;;;2.00;99.90;;;;;;5034375;28;19979;-71
2022/01/05 14:03:53;;;;;;;;;;;2.00;99.90;;;;;;5034851;28;19968;-73
2022/01/05 14:06:26;;;;;;;;;;;1.90;99.90;;;;;;5034866;28;20023;-71
2022/01/05 14:09:00;;;;;;;;;;;1.80;99.90;;;;;;5018024;28;19920;-71
2022/01/05 14:11:35;;;;;;;;;;;1.80;99.90;;;;;;5034750;28;19997;-76
2022/01/05 14:14:07;;;;;;;;;;;1.70;99.90;;;;;;5033618;28;19931;-72
2022/01/05 14:16:35;;;;;;;;;;;1.80;99.90;;;;;;5051649;28;20403;-72
2022/01/05 14:19:10;;;;;;;;;;;1.70;99.90;;;;;;5041247;28;20024;-71
2022/01/05 14:21:44;;;;;;;;;;;1.70;99.90;;;;;;5047189;28;19972;-73
2022/01/05 14:24:29;;;;;;;;;;;1.60;99.90;;;;;;5030098;28;20440;-72
2022/01/05 14:26:56;;;;;;;;;;;1.60;99.90;;;;;;5028539;28;19975;-71
2022/01/05 14:29:28;;;;;;;;;;;1.60;99.90;;;;;;5033889;28;20369;-71
2022/01/05 14:32:04;;;;;;;;;;;1.50;99.90;;;;;;5032499;28;19921;-71
2022/01/05 14:34:41;;;;;;;;;;;1.50;99.90;;;;;;5033258;28;20023;-71
2022/01/05 14:37:13;;;;;;;;;;;1.40;99.90;;;;;;5050599;28;19975;-71
2022/01/05 14:39:41;;;;;;;;;;;1.40;99.90;;;;;;5033433;28;19924;-71
2022/01/05 14:42:14;;;;;;;;;;;1.40;99.90;;;;;;5033263;28;20011;-71
2022/01/05 14:44:41;;;;;;;;;;;1.40;99.90;;;;;;5033274;28;19963;-71
2022/01/05 14:47:13;;;;;;;;;;;1.40;99.90;;;;;;5034231;28;20333;-71
2022/01/05 14:49:40;;;;;;;;;;;1.30;99.90;;;;;;5033638;28;19963;-71
2022/01/05 14:52:13;;;;;;;;;;;1.30;99.90;;;;;;5051510;28;20003;-71
2022/01/05 14:54:40;;;;;;;;;;;1.20;99.90;;;;;;5051229;28;19952;-71
2022/01/05 14:57:09;;;;;;;;;;;1.20;99.90;;;;;;5051339;28;19966;-72
2022/01/05 14:59:35;;;;;;;;;;;1.20;99.90;;;;;;5051036;28;20396;-71